Saint-Lambert, Canada
Current Conditions -  °F | °C
As of 3:00 AM on Thursday 23 Oct 2014 (Local Time) from CYHU Reporting Station
Overcast Overcast  
Wind Chill: 37°   Ceiling: 5500
Heat Index: 45°   Visibility: 9mi
Dew Point: 34°   Wind: 17mph
Humidity: 66%   Direction: 30°NNE
Pressure: 30.14"   Gusts: 26mph
Location:  45.48°N, 73.5°W
Report Text: CYHU 230700Z AUTO 03015G23KT 9SM OVC055 07/01 A3014 RMK SLP206
Loading
Personal Weather Stations






























Interactive Weather Map
Tropical Storm Tracking
New forecast layout! Learn more

10-Day Weather Forecast

Advertisements
Track Severe Weather on mobile